Time;durP1;ratioP1;P1;durP2;ratioP2;P2;SDS_P1;SDS_P2;PMS_P1;PMS_P2;Temp;Humidity;BMP_temperature;BMP_pressure;BME280_temperature;BME280_humidity;BME280_pressure;Samples;Min_cycle;Max_cycle;Signal;HPM_P1;HPM_P2
2021/12/17 00:06:58;;;;;;;23.37;9.87;;;;;;;3.21;100.00;98452.81;10442387;28;20231;-62
2021/12/17 00:11:59;;;;;;;20.87;9.47;;;;;;;3.17;100.00;98453.00;10441963;28;20168;-63
2021/12/17 00:17:02;;;;;;;22.60;10.33;;;;;;;3.24;100.00;98457.03;10441918;28;20212;-61
2021/12/17 00:48:42;;;;;;;21.10;9.03;;;;;;;3.36;100.00;98471.19;10440906;28;20180;-64
2021/12/17 00:53:43;;;;;;;22.93;9.73;;;;;;;3.35;100.00;98472.09;10441016;28;20169;-62
2021/12/17 00:58:44;;;;;;;26.37;10.47;;;;;;;3.27;100.00;98480.19;10440735;28;20426;-63
2021/12/17 01:03:44;;;;;;;22.73;10.07;;;;;;;3.30;100.00;98474.06;10438708;28;20165;-61
2021/12/17 01:08:45;;;;;;;20.57;10.33;;;;;;;3.41;100.00;98477.00;10473420;28;20190;-61
2021/12/17 01:13:50;;;;;;;27.70;11.80;;;;;;;3.39;100.00;98491.78;10475324;28;20205;-61
2021/12/17 01:45:46;;;;;;;35.13;15.57;;;;;;;3.36;100.00;98469.44;10415435;28;20618;-76
2021/12/17 02:01:27;;;;;;;33.00;15.37;;;;;;;3.45;100.00;98463.00;10413795;28;20184;-76
2021/12/17 02:06:29;;;;;;;37.30;15.47;;;;;;;3.47;100.00;98468.94;10397628;28;20196;-76
2021/12/17 02:12:03;;;;;;;34.80;15.37;;;;;;;3.56;100.00;98463.34;10398477;28;20227;-76
2021/12/17 02:32:48;;;;;;;29.83;15.10;;;;;;;3.51;100.00;98456.72;10414804;28;20256;-76
2021/12/17 02:37:50;;;;;;;31.37;15.03;;;;;;;3.61;100.00;98457.13;10414934;28;20615;-76
2021/12/17 02:48:22;;;;;;;29.63;16.57;;;;;;;3.62;100.00;98451.88;10413155;28;20188;-76
2021/12/17 02:53:25;;;;;;;35.00;16.43;;;;;;;3.62;100.00;98435.50;10413591;28;20267;-76
2021/12/17 02:58:27;;;;;;;32.60;16.43;;;;;;;3.62;100.00;98432.91;10414095;28;20216;-77
2021/12/17 03:03:31;;;;;;;37.50;16.37;;;;;;;3.55;100.00;98443.56;10413694;28;20192;-76
2021/12/17 03:08:31;;;;;;;29.27;15.10;;;;;;;3.46;100.00;98443.97;10412359;28;20189;-76
2021/12/17 03:13:35;;;;;;;28.70;15.30;;;;;;;3.44;100.00;98450.13;10395624;28;20200;-76
2021/12/17 03:18:59;;;;;;;33.70;15.63;;;;;;;3.40;100.00;98452.03;10413505;28;20597;-76
2021/12/17 03:23:55;;;;;;;33.80;15.07;;;;;;;3.45;100.00;98455.22;10397045;28;20259;-76
2021/12/17 03:29:04;;;;;;;35.83;16.60;;;;;;;3.43;100.00;98461.38;10395477;28;20189;-76
2021/12/17 03:39:14;;;;;;;36.73;16.80;;;;;;;3.38;100.00;98469.34;10417874;28;20562;-76
2021/12/17 03:44:15;;;;;;;36.10;15.30;;;;;;;3.28;100.00;98468.06;10410942;28;20189;-76
2021/12/17 03:49:36;;;;;;;41.00;18.20;;;;;;;3.25;100.00;98476.84;10411568;28;20208;-76
2021/12/17 03:54:37;;;;;;;34.43;15.03;;;;;;;3.36;100.00;98471.19;10410678;28;20231;-76
2021/12/17 03:59:39;;;;;;;31.20;15.07;;;;;;;3.46;100.00;98469.88;10410189;28;20237;-76
2021/12/17 04:04:40;;;;;;;27.83;14.80;;;;;;;3.44;100.00;98461.31;10429118;28;20191;-76
2021/12/17 04:09:59;;;;;;;34.30;15.07;;;;;;;3.36;100.00;98450.47;10448084;28;20560;-77
2021/12/17 04:15:01;;;;;;;31.67;16.00;;;;;;;3.41;100.00;98453.69;10447448;28;20208;-76
2021/12/17 04:20:01;;;;;;;29.03;14.20;;;;;;;3.34;100.00;98450.53;10448933;28;20195;-77
2021/12/17 04:25:03;;;;;;;35.93;14.60;;;;;;;3.27;100.00;98441.34;10446311;28;20239;-77
2021/12/17 04:30:04;;;;;;;30.40;13.97;;;;;;;3.32;100.00;98434.22;10413381;28;20195;-76
2021/12/17 04:35:05;;;;;;;38.63;15.47;;;;;;;3.29;100.00;98423.16;10430267;28;20273;-76
2021/12/17 04:40:14;;;;;;;39.37;16.70;;;;;;;3.21;100.00;98419.13;10447134;28;20241;-76
2021/12/17 04:45:23;;;;;;;36.27;15.10;;;;;;;3.14;100.00;98412.56;10447578;28;20598;-77
2021/12/17 05:01:10;;;;;;;35.83;16.57;;;;;;;3.18;100.00;98424.44;10456247;28;20205;-77
2021/12/17 05:06:12;;;;;;;47.03;19.03;;;;;;;3.20;100.00;98422.66;10459186;28;20176;-77
2021/12/17 05:11:39;;;;;;;40.23;18.67;;;;;;;3.08;100.00;98428.38;10458468;28;20561;-77
2021/12/17 05:22:12;;;;;;;44.03;19.47;;;;;;;3.25;100.00;98419.00;10389770;28;20207;-76
2021/12/17 05:27:14;;;;;;;40.30;18.37;;;;;;;3.12;100.00;98416.97;10457330;28;20818;-77
2021/12/17 05:32:23;;;;;;;38.93;19.03;;;;;;;3.14;100.00;98409.97;10442042;28;20557;-77
2021/12/17 05:37:28;;;;;;;40.73;18.37;;;;;;;2.98;100.00;98407.22;10457429;28;20222;-76
2021/12/17 05:42:28;;;;;;;38.10;18.47;;;;;;;3.04;100.00;98406.94;10457145;28;20185;-76
2021/12/17 05:47:35;;;;;;;49.13;20.60;;;;;;;2.86;100.00;98402.56;10457534;28;20274;-76
2021/12/17 05:52:35;;;;;;;46.83;19.70;;;;;;;2.95;100.00;98409.09;10440547;28;20294;-76
2021/12/17 05:57:36;;;;;;;41.40;17.93;;;;;;;2.97;100.00;98408.13;10440202;28;20310;-76
2021/12/17 06:02:37;;;;;;;42.70;18.53;;;;;;;3.02;100.00;98415.69;10455426;28;20195;-76
2021/12/17 06:07:37;;;;;;;42.10;19.03;;;;;;;3.06;100.00;98422.41;10456394;28;20184;-76
2021/12/17 06:12:39;;;;;;;41.17;19.00;;;;;;;3.14;100.00;98417.75;10455938;28;20298;-76
2021/12/17 06:17:42;;;;;;;38.40;17.70;;;;;;;3.01;100.00;98419.19;10439483;28;20303;-76
2021/12/17 06:22:43;;;;;;;46.00;18.53;;;;;;;3.06;100.00;98422.41;10455865;28;20861;-76
2021/12/17 06:27:44;;;;;;;42.60;20.20;;;;;;;2.91;100.00;98418.75;10455006;28;20253;-77
2021/12/17 06:32:46;;;;;;;48.50;21.30;;;;;;;2.97;100.00;98413.31;10455086;28;20314;-77
2021/12/17 06:37:48;;;;;;;40.40;17.57;;;;;;;2.91;100.00;98421.34;10437947;28;20224;-77
2021/12/17 06:42:57;;;;;;;46.53;19.30;;;;;;;2.82;100.00;98425.16;10454793;28;20366;-76
2021/12/17 06:47:59;;;;;;;46.77;20.67;;;;;;;2.78;100.00;98426.19;10454596;28;20271;-77
2021/12/17 07:21:03;;;;;;;51.13;23.03;;;;;;;2.63;100.00;98421.66;10413514;28;20192;-77
2021/12/17 07:41:53;;;;;;;46.03;20.30;;;;;;;2.55;100.00;98444.44;10413912;28;20746;-77
2021/12/17 07:47:09;;;;;;;54.60;22.33;;;;;;;2.34;100.00;98439.22;10411594;28;20199;-77
2021/12/17 07:52:09;;;;;;;53.40;21.43;;;;;;;2.50;100.00;98450.63;10412594;28;20205;-77
2021/12/17 07:57:11;;;;;;;54.30;21.60;;;;;;;2.49;100.00;98467.06;10408598;28;20212;-77
2021/12/17 08:02:13;;;;;;;49.03;20.87;;;;;;;2.37;100.00;98462.38;10409739;28;20192;-77
2021/12/17 08:07:20;;;;;;;52.60;19.70;;;;;;;2.28;100.00;98465.34;10392610;28;20212;-76
2021/12/17 08:12:21;;;;;;;54.97;20.47;;;;;;;2.32;100.00;98472.91;10392784;28;20292;-75
2021/12/17 08:23:29;;;;;;;44.37;18.83;;;;;;;2.42;100.00;98499.25;10409449;28;20643;-75
2021/12/17 08:28:50;;;;;;;51.13;19.93;;;;;;;2.34;100.00;98480.59;10412329;28;20189;-74
2021/12/17 08:33:50;;;;;;;43.53;18.13;;;;;;;2.33;100.00;98486.69;10412578;28;20181;-74
2021/12/17 08:38:51;;;;;;;38.97;16.70;;;;;;;2.44;100.00;98479.34;10396681;28;20967;-74
2021/12/17 08:44:01;;;;;;;39.60;15.97;;;;;;;2.45;100.00;98473.28;10426727;28;20185;-75
2021/12/17 08:49:05;;;;;;;42.70;18.27;;;;;;;2.44;100.00;98468.16;10458295;28;20207;-77
2021/12/17 08:54:32;;;;;;;40.50;16.43;;;;;;;2.26;100.00;98465.41;10455555;28;20224;-75
2021/12/17 08:59:33;;;;;;;48.13;15.63;;;;;;;2.29;100.00;98470.44;10445714;28;20218;-75
2021/12/17 09:04:45;;;;;;;41.03;15.47;;;;;;;2.43;100.00;98484.56;10462152;28;20256;-75
2021/12/17 09:09:48;;;;;;;38.97;16.00;;;;;;;2.36;100.00;98478.81;10462308;28;20196;-74
2021/12/17 09:14:58;;;;;;;41.37;14.93;;;;;;;2.32;100.00;98475.50;10460948;28;20225;-75
2021/12/17 09:20:22;;;;;;;35.07;13.93;;;;;;;2.35;100.00;98456.44;10442096;28;20208;-75
2021/12/17 09:25:23;;;;;;;41.97;15.53;;;;;;;2.34;100.00;98474.59;10425392;28;20220;-75
2021/12/17 09:30:30;;;;;;;43.17;14.47;;;;;;;2.40;100.00;98469.19;10425531;28;20267;-75
2021/12/17 09:35:30;;;;;;;41.33;15.17;;;;;;;2.29;100.00;98467.03;10428480;28;20250;-74
2021/12/17 09:40:31;;;;;;;40.63;15.30;;;;;;;2.53;100.00;98465.19;10429977;28;20216;-75
2021/12/17 09:45:31;;;;;;;42.17;16.57;;;;;;;2.64;100.00;98457.00;10418140;28;20187;-75
2021/12/17 09:50:32;;;;;;;39.90;16.90;;;;;;;2.55;100.00;98467.72;10416414;28;20215;-74
2021/12/17 09:55:33;;;;;;;49.67;16.57;;;;;;;2.39;100.00;98459.72;10415982;28;20903;-75
2021/12/17 10:00:33;;;;;;;51.37;18.53;;;;;;;2.35;100.00;98447.84;10414369;28;20538;-74
2021/12/17 10:05:35;;;;;;;40.03;16.73;;;;;;;2.52;100.00;98454.91;10415050;28;20185;-74
2021/12/17 10:10:44;;;;;;;47.30;17.47;;;;;;;2.59;100.00;98435.63;10414194;28;20217;-74
2021/12/17 10:15:46;;;;;;;47.07;16.90;;;;;;;2.38;100.00;98442.53;10412532;28;20215;-74
2021/12/17 10:20:58;;;;;;;44.30;16.43;;;;;;;2.66;100.00;98434.47;10413394;28;20197;-74
2021/12/17 10:25:59;;;;;;;38.97;15.17;;;;;;;2.70;100.00;98441.22;10407403;28;20235;-75
2021/12/17 10:31:00;;;;;;;41.97;16.47;;;;;;;2.85;100.00;98450.09;10394227;28;20196;-74
2021/12/17 10:36:03;;;;;;;38.90;15.23;;;;;;;3.08;100.00;98467.22;10413205;28;20702;-74
2021/12/17 10:41:05;;;;;;;42.00;17.37;;;;;;;2.94;100.00;98473.00;10414018;28;20192;-74
2021/12/17 10:46:23;;;;;;;41.67;15.87;;;;;;;2.95;100.00;98482.41;10412668;28;20195;-74
2021/12/17 10:51:45;;;;;;;41.07;17.33;;;;;;;3.09;100.00;98478.41;10412979;28;20711;-74
2021/12/17 10:56:54;;;;;;;39.17;17.97;;;;;;;3.10;100.00;98475.75;10411812;28;20224;-75
2021/12/17 11:02:06;;;;;;;43.70;17.97;;;;;;;2.83;100.00;98477.75;10410491;28;20253;-75
2021/12/17 11:07:10;;;;;;;42.63;18.93;;;;;;;2.98;100.00;98468.50;10410299;28;20189;-75
2021/12/17 11:12:12;;;;;;;45.17;19.07;;;;;;;2.92;100.00;98484.31;10407645;28;20195;-75
2021/12/17 11:17:16;;;;;;;53.30;22.03;;;;;;;2.81;100.00;98488.19;10407687;28;20629;-75
2021/12/17 11:22:17;;;;;;;46.30;20.53;;;;;;;2.88;100.00;98486.19;10408595;28;20188;-76
2021/12/17 11:27:18;;;;;;;58.27;21.27;;;;;;;2.81;100.00;98484.75;10410759;28;20231;-75
2021/12/17 11:32:19;;;;;;;49.50;21.43;;;;;;;2.69;100.00;98491.28;10409966;28;20204;-74
2021/12/17 11:37:20;;;;;;;58.03;21.77;;;;;;;2.81;100.00;98489.94;10410367;28;20624;-75
2021/12/17 11:42:36;;;;;;;54.50;20.57;;;;;;;2.65;100.00;98494.91;10392741;28;20188;-74
2021/12/17 11:47:37;;;;;;;59.67;24.33;;;;;;;2.55;100.00;98485.84;10409377;28;20195;-74
2021/12/17 11:52:39;;;;;;;53.83;22.50;;;;;;;2.61;100.00;98494.19;10409882;28;20217;-74
2021/12/17 11:57:40;;;;;;;51.50;21.47;;;;;;;2.59;100.00;98496.00;10408448;28;20242;-74
2021/12/17 12:02:49;;;;;;;50.47;21.63;;;;;;;2.61;100.00;98496.75;10409189;28;20192;-74
2021/12/17 12:07:49;;;;;;;56.63;23.30;;;;;;;2.49;100.00;98497.25;10410848;28;20189;-74
2021/12/17 12:12:50;;;;;;;52.07;21.83;;;;;;;2.68;100.00;98484.44;10409759;28;20295;-74
2021/12/17 12:18:09;;;;;;;49.53;22.43;;;;;;;2.56;100.00;98483.19;10409196;28;20224;-74
2021/12/17 12:23:23;;;;;;;54.80;21.73;;;;;;;2.62;100.00;98484.66;10409726;28;20325;-74
2021/12/17 12:28:46;;;;;;;53.77;23.20;;;;;;;2.68;100.00;98469.75;10409119;28;20279;-74
2021/12/17 12:34:09;;;;;;;59.27;23.57;;;;;;;2.81;100.00;98458.88;10409455;28;20185;-74
2021/12/17 12:39:21;;;;;;;53.57;23.33;;;;;;;2.72;100.00;98452.31;10409956;28;20208;-74
2021/12/17 12:44:40;;;;;;;55.83;22.67;;;;;;;2.75;100.00;98446.19;10409418;28;20665;-74
2021/12/17 12:49:41;;;;;;;48.27;21.97;;;;;;;2.88;100.00;98452.53;10409668;28;20680;-74
2021/12/17 12:54:41;;;;;;;55.20;24.33;;;;;;;2.94;100.00;98441.91;10407302;28;20261;-74
2021/12/17 12:59:44;;;;;;;52.27;24.83;;;;;;;2.93;100.00;98442.00;10410599;28;20237;-74
2021/12/17 13:04:45;;;;;;;50.83;22.93;;;;;;;3.01;100.00;98445.91;10391912;28;20274;-74
2021/12/17 13:09:46;;;;;;;52.57;24.10;;;;;;;2.92;100.00;98435.13;10412333;28;20711;-74
2021/12/17 13:14:47;;;;;;;55.77;23.20;;;;;;;2.93;100.00;98432.47;10417047;28;20216;-74
2021/12/17 13:25:22;;;;;;;48.37;21.97;;;;;;;3.01;100.00;98437.31;10415460;28;20635;-75
2021/12/17 13:30:26;;;;;;;42.67;21.87;;;;;;;3.10;100.00;98434.31;10416516;28;20192;-74
2021/12/17 13:35:33;;;;;;;44.80;21.67;;;;;;;2.97;100.00;98428.84;10399359;28;20622;-74
2021/12/17 13:40:36;;;;;;;49.40;21.97;;;;;;;3.00;100.00;98433.91;10414049;28;20227;-74
2021/12/17 13:45:37;;;;;;;46.53;21.97;;;;;;;2.94;100.00;98433.28;10416226;28;20275;-74
2021/12/17 13:50:41;;;;;;;53.37;23.33;;;;;;;2.91;100.00;98443.78;10415958;28;20569;-74
2021/12/17 13:55:44;;;;;;;46.87;22.53;;;;;;;2.76;100.00;98456.47;10414973;28;20225;-74
2021/12/17 14:00:49;;;;;;;47.70;21.80;;;;;;;2.78;100.00;98456.41;10415554;28;20276;-74
2021/12/17 14:05:56;;;;;;;44.50;22.93;;;;;;;2.83;100.00;98444.97;10414460;28;20181;-74
2021/12/17 14:10:58;;;;;;;53.17;23.37;;;;;;;2.87;100.00;98445.66;10413322;28;20682;-74
2021/12/17 14:15:59;;;;;;;50.23;22.40;;;;;;;2.95;100.00;98447.94;10413948;28;20224;-75
2021/12/17 14:21:02;;;;;;;46.30;21.70;;;;;;;2.95;100.00;98453.09;10414086;28;20659;-73
2021/12/17 14:26:06;;;;;;;42.43;21.23;;;;;;;2.83;100.00;98450.16;10414397;28;20576;-74
2021/12/17 14:31:14;;;;;;;47.20;21.27;;;;;;;2.82;100.00;98468.34;10414573;28;20755;-75
2021/12/17 14:36:38;;;;;;;42.50;20.90;;;;;;;2.87;100.00;98468.13;10413768;28;20212;-75
2021/12/17 14:41:53;;;;;;;37.97;17.57;;;;;;;2.81;100.00;98474.41;10413925;28;20189;-74
2021/12/17 15:03:19;;;;;;;30.13;14.37;;;;;;;2.74;100.00;98467.78;10412926;28;20184;-74
2021/12/17 15:08:20;;;;;;;26.90;15.20;;;;;;;2.66;100.00;98450.88;10411399;28;20188;-74
2021/12/17 15:13:22;;;;;;;25.47;13.57;;;;;;;2.73;100.00;98455.78;10410679;28;20528;-75
2021/12/17 15:18:22;;;;;;;22.23;11.77;;;;;;;2.80;100.00;98450.28;10409283;28;20209;-74
2021/12/17 15:23:24;;;;;;;26.23;13.20;;;;;;;2.64;100.00;98457.00;10412496;28;20237;-74
2021/12/17 15:28:26;;;;;;;25.23;11.77;;;;;;;2.70;100.00;98461.91;10409108;28;20653;-74
2021/12/17 15:33:27;;;;;;;27.07;12.13;;;;;;;2.71;100.00;98480.84;10407317;28;20346;-75
2021/12/17 15:38:27;;;;;;;25.87;12.50;;;;;;;2.69;100.00;98470.56;10409729;28;20311;-74
2021/12/17 15:43:28;;;;;;;23.13;11.47;;;;;;;2.79;100.00;98466.69;10410466;28;20249;-72
2021/12/17 15:48:28;;;;;;;28.43;13.43;;;;;;;2.68;100.00;98469.75;10410126;28;20196;-75
2021/12/17 15:53:29;;;;;;;30.60;13.87;;;;;;;2.62;100.00;98464.81;10411662;28;20319;-74
2021/12/17 15:58:30;;;;;;;32.97;15.20;;;;;;;2.62;100.00;98472.59;10407382;28;20228;-73
2021/12/17 16:03:33;;;;;;;28.67;13.87;;;;;;;2.70;100.00;98472.25;10394610;28;20762;-74
2021/12/17 16:08:36;;;;;;;30.17;13.60;;;;;;;2.77;100.00;98459.91;10375884;28;20281;-75
2021/12/17 16:20:59;;;;;;;28.83;13.23;;;;;;;2.71;100.00;98461.03;10402261;28;20223;-74
2021/12/17 16:24:16;;;;;;;30.60;14.27;;;;;;;2.72;100.00;98454.09;10410066;28;20236;-75
2021/12/17 16:29:18;;;;;;;28.67;14.07;;;;;;;2.77;100.00;98453.00;10408270;28;20189;-75
2021/12/17 16:34:19;;;;;;;30.30;15.00;;;;;;;2.78;100.00;98456.41;10410028;28;20200;-75
2021/12/17 16:39:20;;;;;;;28.63;14.43;;;;;;;2.80;100.00;98455.47;10408606;28;20584;-74
2021/12/17 16:44:37;;;;;;;26.87;14.67;;;;;;;2.76;100.00;98445.28;10413443;28;20711;-74
2021/12/17 16:49:37;;;;;;;26.53;12.63;;;;;;;2.89;100.00;98441.25;10418556;28;20231;-75
2021/12/17 16:54:37;;;;;;;27.73;13.10;;;;;;;2.87;100.00;98445.66;10417707;28;20219;-75
2021/12/17 16:59:38;;;;;;;26.93;13.27;;;;;;;2.85;100.00;98440.56;10417359;28;20650;-75
2021/12/17 17:04:38;;;;;;;27.57;14.10;;;;;;;2.75;100.00;98439.25;10417727;28;20249;-75
2021/12/17 17:09:38;;;;;;;29.63;14.37;;;;;;;2.77;100.00;98437.47;10414680;28;20201;-74
2021/12/17 17:14:40;;;;;;;23.27;13.23;;;;;;;2.83;100.00;98444.13;10416016;28;20212;-74
2021/12/17 17:19:40;;;;;;;25.23;12.30;;;;;;;2.85;100.00;98435.38;10417730;28;20193;-74
2021/12/17 17:24:41;;;;;;;24.40;12.60;;;;;;;2.78;100.00;98431.38;10417457;28;20228;-75
2021/12/17 17:29:43;;;;;;;26.67;13.30;;;;;;;2.82;100.00;98437.28;10422389;28;20192;-74
2021/12/17 17:34:43;;;;;;;20.67;12.10;;;;;;;2.79;100.00;98442.59;10419093;28;20212;-74
2021/12/17 17:39:44;;;;;;;25.37;13.67;;;;;;;2.81;100.00;98459.72;10418402;28;20196;-75
2021/12/17 17:44:44;;;;;;;23.53;12.10;;;;;;;2.82;100.00;98451.03;10417126;28;20185;-74
2021/12/17 17:49:44;;;;;;;28.20;11.47;;;;;;;2.85;100.00;98456.09;10418366;28;20204;-75
2021/12/17 17:54:45;;;;;;;22.73;11.27;;;;;;;2.88;100.00;98474.97;10416021;28;20217;-75
2021/12/17 17:59:48;;;;;;;21.70;10.43;;;;;;;2.80;100.00;98476.16;10417179;28;20710;-75
2021/12/17 18:04:48;;;;;;;21.67;9.90;;;;;;;2.78;100.00;98456.41;10417271;28;20601;-75
2021/12/17 18:09:49;;;;;;;18.33;10.07;;;;;;;2.89;100.00;98461.13;10416618;28;20184;-75
2021/12/17 18:14:49;;;;;;;18.20;8.97;;;;;;;2.82;100.00;98474.34;10416925;28;20216;-75
2021/12/17 18:19:52;;;;;;;18.20;9.60;;;;;;;2.84;100.00;98471.69;10416494;28;20193;-75
2021/12/17 18:24:52;;;;;;;17.50;9.00;;;;;;;2.92;100.00;98467.00;10414926;28;20597;-75
2021/12/17 18:29:52;;;;;;;30.03;15.73;;;;;;;2.75;100.00;98470.31;10415465;28;20207;-75
2021/12/17 18:34:53;;;;;;;21.20;10.80;;;;;;;2.72;100.00;98467.03;10415669;28;20290;-75
2021/12/17 18:39:53;;;;;;;20.10;9.77;;;;;;;2.80;100.00;98464.94;10416179;28;20199;-75
2021/12/17 18:44:54;;;;;;;22.07;12.80;;;;;;;2.81;100.00;98462.28;10415779;28;20287;-75
2021/12/17 18:49:54;;;;;;;25.50;20.53;;;;;;;2.75;100.00;98479.84;10414631;28;20300;-75
2021/12/17 18:54:54;;;;;;;18.87;9.90;;;;;;;2.77;100.00;98463.34;10414276;28;20224;-75
2021/12/17 18:59:55;;;;;;;18.70;10.27;;;;;;;2.78;100.00;98454.66;10413676;28;20295;-75
2021/12/17 19:04:55;;;;;;;20.47;9.57;;;;;;;2.76;100.00;98456.47;10413678;28;20200;-75
2021/12/17 19:09:55;;;;;;;18.10;10.83;;;;;;;2.88;100.00;98447.38;10413004;28;20196;-76
2021/12/17 19:14:56;;;;;;;15.70;9.83;;;;;;;2.98;100.00;98443.44;10411604;28;20209;-75
2021/12/17 19:20:10;;;;;;;22.37;11.20;;;;;;;2.87;100.00;98443.09;10411231;28;20197;-76
2021/12/17 19:25:13;;;;;;;16.03;10.73;;;;;;;2.93;100.00;98447.16;10408079;28;20319;-76
2021/12/17 19:30:16;;;;;;;18.07;10.33;;;;;;;2.93;100.00;98442.81;10411860;28;20215;-75
2021/12/17 19:35:19;;;;;;;17.53;8.43;;;;;;;2.90;100.00;98452.47;10412306;28;20307;-76
2021/12/17 19:40:20;;;;;;;15.77;8.37;;;;;;;2.89;100.00;98449.03;10412075;28;20211;-76
2021/12/17 19:45:20;;;;;;;18.37;8.10;;;;;;;2.99;100.00;98447.72;10412139;28;20628;-75
2021/12/17 19:50:21;;;;;;;14.37;7.93;;;;;;;2.95;100.00;98447.94;10412069;28;20208;-76
2021/12/17 19:55:21;;;;;;;20.10;8.17;;;;;;;2.96;100.00;98480.69;10411332;28;20225;-76
2021/12/17 20:00:22;;;;;;;14.77;7.93;;;;;;;2.90;100.00;98484.38;10411805;28;20224;-76
2021/12/17 20:05:23;;;;;;;15.77;7.60;;;;;;;2.85;100.00;98474.22;10412941;28;20188;-76
2021/12/17 20:10:23;;;;;;;16.97;8.33;;;;;;;2.74;100.00;98484.19;10411625;28;20801;-76
2021/12/17 20:15:24;;;;;;;18.00;8.43;;;;;;;2.84;100.00;98484.63;10411809;28;20212;-76
2021/12/17 20:20:24;;;;;;;14.40;7.87;;;;;;;2.71;100.00;98499.84;10410660;28;20219;-76
2021/12/17 20:25:24;;;;;;;15.43;7.30;;;;;;;2.72;100.00;98505.84;10410414;28;20459;-76
2021/12/17 20:30:25;;;;;;;22.17;11.23;;;;;;;2.58;100.00;98502.06;10410858;28;20226;-75
2021/12/17 20:35:25;;;;;;;18.03;8.77;;;;;;;2.66;100.00;98512.97;10414405;28;20264;-75
2021/12/17 20:40:28;;;;;;;16.97;9.17;;;;;;;2.68;100.00;98516.31;10411813;28;20199;-76
2021/12/17 20:45:28;;;;;;;17.23;9.37;;;;;;;2.76;100.00;98515.16;10410518;28;20684;-76
2021/12/17 20:50:30;;;;;;;16.43;8.20;;;;;;;2.77;100.00;98499.56;10410576;28;20223;-76
2021/12/17 20:55:32;;;;;;;14.40;9.30;;;;;;;2.68;100.00;98493.03;10410052;28;20299;-76
2021/12/17 21:00:34;;;;;;;18.57;9.57;;;;;;;2.72;100.00;98496.31;10410290;28;20250;-75
2021/12/17 21:05:35;;;;;;;12.83;8.47;;;;;;;2.85;100.00;98494.09;10410804;28;20247;-76
2021/12/17 21:10:40;;;;;;;17.47;8.43;;;;;;;2.82;100.00;98507.16;10410457;28;20771;-75
2021/12/17 21:15:44;;;;;;;19.43;9.40;;;;;;;2.91;100.00;98500.72;10410273;28;20902;-76
2021/12/17 21:20:47;;;;;;;18.80;9.83;;;;;;;2.97;100.00;98521.19;10429107;28;20202;-75
2021/12/17 21:25:50;;;;;;;17.50;9.57;;;;;;;2.86;100.00;98519.03;10446428;28;20303;-75
2021/12/17 21:30:52;;;;;;;16.90;9.77;;;;;;;2.80;100.00;98514.13;10450952;28;20249;-75
2021/12/17 21:35:54;;;;;;;28.87;10.37;;;;;;;2.78;100.00;98521.13;10436874;28;20208;-76
2021/12/17 21:40:55;;;;;;;21.60;11.07;;;;;;;2.89;100.00;98524.09;10454784;28;20188;-75
2021/12/17 21:45:55;;;;;;;22.27;10.43;;;;;;;2.88;100.00;98519.84;10452682;28;20195;-75
2021/12/17 21:50:56;;;;;;;21.57;9.93;;;;;;;2.85;100.00;98507.84;10453282;28;20234;-76
2021/12/17 21:55:56;;;;;;;19.73;9.97;;;;;;;2.87;100.00;98506.97;10457433;28;20223;-76
2021/12/17 22:00:57;;;;;;;17.47;9.10;;;;;;;2.89;100.00;98503.38;10458262;28;20731;-76
2021/12/17 22:05:59;;;;;;;19.63;9.30;;;;;;;2.73;100.00;98500.59;10458241;28;20239;-76
2021/12/17 22:11:01;;;;;;;16.37;9.47;;;;;;;2.76;100.00;98504.81;10458140;28;20274;-75
2021/12/17 22:16:02;;;;;;;18.43;9.03;;;;;;;2.84;100.00;98494.97;10457702;28;20224;-75
2021/12/17 22:21:07;;;;;;;18.33;9.73;;;;;;;2.81;100.00;98495.09;10457496;28;20192;-75
2021/12/17 22:26:08;;;;;;;23.77;10.50;;;;;;;2.69;100.00;98504.22;10457173;28;20254;-75
2021/12/17 22:31:08;;;;;;;20.93;9.37;;;;;;;2.66;100.00;98505.19;10457548;28;20198;-76
2021/12/17 22:36:09;;;;;;;21.07;9.47;;;;;;;2.68;100.00;98495.63;10456276;28;20219;-76
2021/12/17 22:41:40;;;;;;;20.80;8.40;;;;;;;2.62;100.00;98508.81;10456411;28;20195;-76
2021/12/17 22:46:31;;;;;;;21.23;9.33;;;;;;;2.50;100.00;98514.47;10456585;28;20204;-76
2021/12/17 22:51:32;;;;;;;17.70;9.10;;;;;;;2.48;100.00;98509.38;10456454;28;20207;-76
2021/12/17 22:56:33;;;;;;;21.30;9.50;;;;;;;2.54;100.00;98504.84;10455853;28;20687;-75
2021/12/17 23:01:39;;;;;;;18.33;8.10;;;;;;;2.60;100.00;98513.19;10456281;28;20558;-76
2021/12/17 23:06:45;;;;;;;16.77;7.47;;;;;;;2.57;100.00;98513.31;10455899;28;20191;-76
2021/12/17 23:11:55;;;;;;;22.97;8.30;;;;;;;2.55;100.00;98520.28;10455420;28;20191;-76
2021/12/17 23:16:55;;;;;;;19.03;8.40;;;;;;;2.59;100.00;98521.00;10455783;28;20244;-76
2021/12/17 23:21:57;;;;;;;19.47;9.57;;;;;;;2.68;100.00;98526.66;10454873;28;20218;-76
2021/12/17 23:26:57;;;;;;;29.03;10.87;;;;;;;2.70;100.00;98526.59;10454824;28;20232;-76
2021/12/17 23:31:58;;;;;;;23.33;11.73;;;;;;;2.58;100.00;98521.94;10453611;28;20208;-76
2021/12/17 23:36:59;;;;;;;25.40;11.17;;;;;;;2.69;100.00;98511.97;10454538;28;20220;-76
2021/12/17 23:42:00;;;;;;;24.90;11.80;;;;;;;2.53;100.00;98510.91;10453644;28;20203;-77
2021/12/17 23:47:00;;;;;;;19.10;10.80;;;;;;;2.63;100.00;98494.97;10453970;28;20191;-76
2021/12/17 23:52:00;;;;;;;20.90;10.23;;;;;;;2.52;100.00;98504.91;10452785;28;20215;-76
2021/12/17 23:57:02;;;;;;;20.20;9.50;;;;;;;2.75;100.00;98516.91;10453575;28;20224;-76
